createdAt,value
2023-05-05T00:06:31.240Z,6.40
2023-05-05T00:16:31.305Z,6.50
2023-05-05T00:26:30.530Z,6.70
2023-05-05T00:36:30.355Z,7.30
2023-05-05T00:46:29.869Z,6.50
2023-05-05T00:56:35.128Z,7.50
2023-05-05T01:06:34.656Z,7.70
2023-05-05T01:16:34.342Z,7.80
2023-05-05T01:26:33.894Z,7.80
2023-05-05T01:36:33.726Z,7.00
2023-05-05T01:46:33.336Z,7.00
2023-05-05T01:56:38.805Z,6.90
2023-05-05T02:06:38.052Z,6.50
2023-05-05T02:16:37.661Z,7.30
2023-05-05T02:26:37.393Z,6.80
2023-05-05T02:36:42.447Z,6.00
2023-05-05T02:46:36.565Z,8.80
2023-05-05T02:56:41.666Z,7.10
2023-05-05T03:06:41.294Z,8.10
2023-05-05T03:16:41.127Z,6.80
2023-05-05T03:26:40.557Z,7.40
2023-05-05T03:36:40.206Z,6.80
2023-05-05T03:46:39.830Z,6.90
2023-05-05T03:56:39.492Z,7.50
2023-05-05T04:06:44.600Z,7.80
2023-05-05T04:16:45.782Z,7.40
2023-05-05T04:26:43.944Z,7.50
2023-05-05T04:36:43.654Z,8.60
2023-05-05T04:46:43.637Z,7.70
2023-05-05T04:56:42.765Z,8.40
2023-05-05T05:06:43.522Z,8.80
2023-05-05T05:16:42.180Z,10.50
2023-05-05T05:26:47.470Z,9.40
2023-05-05T05:36:46.965Z,10.40
2023-05-05T05:46:46.556Z,15.30
2023-05-05T05:56:46.224Z,14.10
2023-05-05T06:06:45.838Z,13.00
2023-05-05T06:16:45.477Z,14.30
2023-05-05T06:26:45.066Z,14.50
2023-05-05T06:36:47.164Z,13.50
2023-05-05T06:46:50.095Z,12.40
2023-05-05T06:56:51.283Z,16.80
2023-05-05T07:06:49.411Z,14.10
2023-05-05T07:16:48.993Z,15.80
2023-05-05T07:26:48.623Z,13.20
2023-05-05T07:36:48.200Z,13.40
2023-05-05T07:46:53.342Z,12.70
2023-05-05T07:56:52.972Z,10.40
2023-05-05T08:06:52.789Z,11.80
2023-05-05T08:16:52.280Z,11.30
2023-05-05T08:26:52.029Z,10.20
2023-05-05T08:36:51.524Z,10.50
2023-05-05T08:46:56.902Z,11.10
2023-05-05T08:56:56.328Z,11.20
2023-05-05T09:06:56.264Z,13.60
2023-05-05T09:16:55.639Z,12.60
2023-05-05T09:26:55.717Z,13.70
2023-05-05T09:36:55.280Z,14.20
2023-05-05T09:47:00.423Z,14.50
2023-05-05T09:57:00.250Z,17.30
2023-05-05T10:06:59.856Z,13.70
2023-05-05T10:16:59.603Z,14.90
2023-05-05T10:26:59.133Z,12.60
2023-05-05T10:37:04.453Z,11.70
2023-05-05T10:47:03.919Z,10.10
2023-05-05T10:57:03.572Z,8.30
2023-05-05T11:07:03.180Z,9.10
2023-05-05T11:17:08.316Z,8.60
2023-05-05T11:27:07.938Z,9.80
2023-05-05T11:37:08.121Z,9.20
2023-05-05T11:47:07.214Z,7.40
2023-05-05T11:57:07.319Z,8.90
2023-05-05T12:07:12.672Z,9.80
2023-05-05T12:17:12.551Z,9.80
2023-05-05T12:27:11.739Z,6.00
2023-05-05T12:37:11.377Z,6.70
2023-05-05T12:47:11.232Z,4.90
2023-05-05T12:57:16.404Z,5.40
2023-05-05T13:07:15.984Z,6.00
2023-05-05T13:17:15.654Z,5.00
2023-05-05T13:27:15.269Z,6.50
2023-05-05T13:37:15.073Z,5.00
2023-05-05T13:47:20.115Z,5.00
2023-05-05T13:57:19.659Z,5.70
2023-05-05T14:07:19.310Z,5.00
2023-05-05T14:17:18.984Z,4.80
2023-05-05T14:27:18.582Z,4.70
2023-05-05T14:37:23.851Z,6.20
2023-05-05T14:47:23.391Z,8.70
2023-05-05T14:57:22.970Z,8.40
2023-05-05T15:07:22.935Z,7.10
2023-05-05T15:17:22.475Z,8.20
2023-05-05T15:27:27.593Z,8.20
2023-05-05T15:37:27.082Z,8.80
2023-05-05T15:47:26.720Z,10.20
2023-05-05T15:57:28.520Z,5.00
2023-05-05T16:07:25.943Z,6.20
2023-05-05T16:17:26.139Z,8.00
2023-05-05T16:27:32.473Z,9.20
2023-05-05T16:37:30.753Z,9.10
2023-05-05T16:47:30.400Z,12.10
2023-05-05T16:57:32.261Z,10.90
2023-05-05T17:07:29.811Z,9.30
2023-05-05T17:17:29.301Z,8.00
2023-05-05T17:27:29.370Z,8.70
2023-05-05T17:37:34.386Z,10.30
2023-05-05T17:47:34.102Z,8.50
2023-05-05T17:57:33.808Z,8.20
2023-05-05T18:07:33.337Z,8.00
2023-05-05T18:17:32.936Z,8.30
2023-05-05T18:27:34.502Z,8.80
2023-05-05T18:37:32.416Z,8.30
2023-05-05T18:47:37.748Z,11.10
2023-05-05T18:57:37.405Z,9.20
2023-05-05T19:07:36.866Z,9.00
2023-05-05T19:17:36.528Z,9.40
2023-05-05T19:27:36.270Z,10.20
2023-05-05T19:37:35.744Z,10.50
2023-05-05T19:47:41.149Z,9.80
2023-05-05T19:57:35.484Z,10.20
2023-05-05T20:07:42.075Z,11.30
2023-05-05T20:17:40.294Z,10.90
2023-05-05T20:27:40.057Z,10.10
2023-05-05T20:37:39.549Z,8.70
2023-05-05T20:47:39.148Z,9.50
2023-05-05T20:57:38.801Z,8.90
2023-05-05T21:07:38.740Z,9.60
2023-05-05T21:17:38.194Z,8.80
2023-05-05T21:27:43.528Z,8.30
2023-05-05T21:47:42.559Z,9.20
2023-05-05T21:57:42.097Z,8.80
2023-05-05T22:07:41.317Z,10.80
2023-05-05T22:17:41.279Z,9.40
2023-05-05T22:27:40.735Z,10.90
2023-05-05T22:37:40.213Z,13.20
2023-05-05T22:47:39.992Z,11.00
2023-05-05T22:57:45.095Z,10.00
2023-05-05T23:07:44.880Z,11.10
2023-05-05T23:17:44.338Z,12.20
2023-05-05T23:27:44.100Z,11.30
2023-05-05T23:37:43.599Z,11.20
2023-05-05T23:47:43.234Z,11.50
2023-05-05T23:57:42.857Z,12.80
